createdAt,value
2022-10-29T00:00:00.591Z,9.747543
2022-10-29T00:01:00.603Z,9.747571
2022-10-29T00:02:00.655Z,9.747472
2022-10-29T00:03:00.613Z,9.747471
2022-10-29T00:04:00.580Z,9.747465
2022-10-29T00:05:00.544Z,9.747461
2022-10-29T00:06:00.574Z,9.747516
2022-10-29T00:07:00.536Z,9.747414
2022-10-29T00:08:00.518Z,9.747337
2022-10-29T00:09:00.513Z,9.747496
2022-10-29T00:10:00.516Z,9.747511
2022-10-29T00:11:00.522Z,9.747571
2022-10-29T00:12:00.494Z,9.747554
2022-10-29T00:13:00.486Z,9.747543
2022-10-29T00:14:00.476Z,9.747472
2022-10-29T00:15:00.462Z,9.747591
2022-10-29T00:16:00.489Z,9.747530
2022-10-29T00:17:00.446Z,9.747385
2022-10-29T00:18:00.441Z,9.747493
2022-10-29T00:19:00.437Z,9.747616
2022-10-29T00:20:00.499Z,9.747471
2022-10-29T00:21:00.445Z,9.747460
2022-10-29T00:22:00.414Z,9.747423
2022-10-29T00:23:00.408Z,9.747473
2022-10-29T00:24:00.401Z,9.747506
2022-10-29T00:25:00.381Z,9.747493
2022-10-29T00:26:00.421Z,9.747429
2022-10-29T00:27:00.379Z,9.747480
2022-10-29T00:28:00.369Z,9.747512
2022-10-29T00:29:00.361Z,9.747487
2022-10-29T00:30:00.352Z,9.747436
2022-10-29T00:31:00.368Z,9.747418
2022-10-29T00:32:00.364Z,9.747568
2022-10-29T00:33:00.395Z,9.747539
2022-10-29T00:34:00.314Z,9.747536
2022-10-29T00:35:00.313Z,9.747523
2022-10-29T00:36:00.323Z,9.747514
2022-10-29T00:37:00.298Z,9.747370
2022-10-29T00:38:00.283Z,9.747321
2022-10-29T00:39:00.279Z,9.747427
2022-10-29T00:40:00.273Z,9.747506
2022-10-29T00:41:00.284Z,9.747519
2022-10-29T00:42:00.243Z,9.747442
2022-10-29T00:43:01.277Z,9.747452
2022-10-29T00:44:00.241Z,9.747545
2022-10-29T00:45:00.231Z,9.747543
2022-10-29T00:46:00.245Z,9.747556
2022-10-29T00:47:00.215Z,9.747541
2022-10-29T00:48:00.209Z,9.747515
2022-10-29T00:49:00.202Z,9.747553
2022-10-29T00:50:00.192Z,9.747635
2022-10-29T00:51:00.208Z,9.747576
2022-10-29T00:52:00.169Z,9.747488
2022-10-29T00:53:00.165Z,9.747401
2022-10-29T00:54:00.152Z,9.747403
2022-10-29T00:55:00.146Z,9.747561
2022-10-29T00:56:00.169Z,9.747532
2022-10-29T00:57:00.136Z,9.747431
2022-10-29T00:58:00.126Z,9.747458
2022-10-29T00:59:00.116Z,9.747433
2022-10-29T01:00:00.130Z,9.747437
2022-10-29T01:01:00.144Z,9.747479
2022-10-29T01:02:00.242Z,9.747412
2022-10-29T01:03:00.301Z,9.747505
2022-10-29T01:04:00.104Z,9.747468
2022-10-29T01:05:00.089Z,9.747491
2022-10-29T01:06:00.089Z,9.747487
2022-10-29T01:07:01.051Z,9.747472
2022-10-29T01:08:00.052Z,9.747341
2022-10-29T01:09:00.041Z,9.747415
2022-10-29T01:10:00.063Z,9.747350
2022-10-29T01:11:00.019Z,9.747406
2022-10-29T01:12:00.023Z,9.747419
2022-10-29T01:13:00.010Z,9.747406
2022-10-29T01:13:59.997Z,9.747428
2022-10-29T01:15:00.029Z,9.747379
2022-10-29T01:15:59.988Z,9.747400
2022-10-29T01:16:59.982Z,9.747484
2022-10-29T01:17:59.967Z,9.747392
2022-10-29T01:19:00.009Z,9.747408
2022-10-29T01:19:59.975Z,9.747437
2022-10-29T01:20:59.975Z,9.747392
2022-10-29T01:21:59.937Z,9.747384
2022-10-29T01:22:59.936Z,9.747402
2022-10-29T01:23:59.920Z,9.747396
2022-10-29T01:24:59.916Z,9.747476
2022-10-29T01:25:59.931Z,9.747423
2022-10-29T01:26:59.898Z,9.747404
2022-10-29T01:27:59.945Z,9.747435
2022-10-29T01:28:59.889Z,9.747421
2022-10-29T01:29:59.878Z,9.747497
2022-10-29T01:30:59.904Z,9.747450
2022-10-29T01:31:59.865Z,9.747433
2022-10-29T01:32:59.853Z,9.747466
2022-10-29T01:33:59.853Z,9.747336
2022-10-29T01:34:59.838Z,9.747299
2022-10-29T01:35:59.859Z,9.747377
2022-10-29T01:36:59.824Z,9.747399
2022-10-29T01:37:59.820Z,9.747340
2022-10-29T01:38:59.813Z,9.747331
2022-10-29T01:39:59.802Z,9.747384
2022-10-29T01:40:59.832Z,9.747297
2022-10-29T01:41:59.791Z,9.747388
2022-10-29T01:43:32.657Z,9.747403
2022-10-29T01:43:59.778Z,9.747414
2022-10-29T01:44:59.772Z,9.747412
2022-10-29T01:45:59.780Z,9.747367
2022-10-29T01:46:59.773Z,9.747366
2022-10-29T01:48:00.743Z,9.747404
2022-10-29T01:48:59.735Z,9.747513
2022-10-29T01:49:59.731Z,9.747367
2022-10-29T01:50:59.745Z,9.747437
2022-10-29T01:51:59.713Z,9.747484
2022-10-29T01:52:59.705Z,9.747390
2022-10-29T01:53:59.690Z,9.747358
2022-10-29T01:54:59.687Z,9.747407
2022-10-29T01:55:59.718Z,9.747559
2022-10-29T01:56:59.665Z,9.747589
2022-10-29T01:57:59.852Z,9.747441
2022-10-29T01:58:59.656Z,9.747417
2022-10-29T01:59:59.646Z,9.747478
2022-10-29T02:00:59.701Z,9.747517
2022-10-29T02:01:59.675Z,9.747486
2022-10-29T02:03:00.046Z,9.747453
2022-10-29T02:03:59.622Z,9.747594
2022-10-29T02:04:59.648Z,9.747567
2022-10-29T02:05:59.600Z,9.747486
2022-10-29T02:06:59.620Z,9.747525
2022-10-29T02:07:59.582Z,9.747565
2022-10-29T02:08:59.577Z,9.747619
2022-10-29T02:09:59.580Z,9.747686
2022-10-29T02:10:59.564Z,9.747688
2022-10-29T02:11:59.585Z,9.747648
2022-10-29T02:12:59.717Z,9.747606
2022-10-29T02:13:59.544Z,9.747612
2022-10-29T02:14:59.525Z,9.747490
2022-10-29T02:15:59.533Z,9.747481
2022-10-29T02:16:59.551Z,9.747585
2022-10-29T02:17:59.498Z,9.747562
2022-10-29T02:18:59.497Z,9.747547
2022-10-29T02:19:59.492Z,9.747535
2022-10-29T02:20:59.486Z,9.747509
2022-10-29T02:21:59.500Z,9.747527
2022-10-29T02:22:59.476Z,9.747495
2022-10-29T02:23:59.471Z,9.747566
2022-10-29T02:24:59.480Z,9.747524
2022-10-29T02:25:59.441Z,9.747573
2022-10-29T02:26:59.475Z,9.747559
2022-10-29T02:27:59.482Z,9.747624
2022-10-29T02:28:59.429Z,9.747569
2022-10-29T02:29:59.427Z,9.747771
2022-10-29T02:30:59.421Z,9.747665
2022-10-29T02:31:59.425Z,9.747615
2022-10-29T02:32:59.735Z,9.747834
2022-10-29T02:33:59.464Z,9.747742
2022-10-29T02:34:59.381Z,9.747824
2022-10-29T02:35:59.372Z,9.747669
2022-10-29T02:36:59.391Z,9.747638
2022-10-29T02:37:59.358Z,9.747549
2022-10-29T02:38:59.356Z,9.747488
2022-10-29T02:39:59.339Z,9.747470
2022-10-29T02:40:59.353Z,9.747433
2022-10-29T02:41:59.340Z,9.747542
2022-10-29T02:42:59.486Z,9.747380
2022-10-29T02:43:59.296Z,9.747330
2022-10-29T02:44:59.344Z,9.747402
2022-10-29T02:45:59.342Z,9.747388
2022-10-29T02:46:59.309Z,9.747499
2022-10-29T02:47:59.562Z,9.747394
2022-10-29T02:48:59.265Z,9.747423
2022-10-29T02:49:59.251Z,9.747396
2022-10-29T02:50:59.258Z,9.747389
2022-10-29T02:51:59.269Z,9.747405
2022-10-29T02:52:59.240Z,9.747289
2022-10-29T02:53:59.226Z,9.747315
2022-10-29T02:54:59.222Z,9.747225
2022-10-29T02:55:59.216Z,9.747355
2022-10-29T02:56:59.235Z,9.747376
2022-10-29T02:57:59.249Z,9.747364
2022-10-29T02:58:59.218Z,9.747250
2022-10-29T02:59:59.185Z,9.747354
2022-10-29T03:00:59.179Z,9.747479
2022-10-29T03:01:59.294Z,9.747419
2022-10-29T03:02:59.520Z,9.747478
2022-10-29T03:03:59.145Z,9.747416
2022-10-29T03:04:59.144Z,9.747433
2022-10-29T03:05:59.134Z,9.747397
2022-10-29T03:06:59.147Z,9.747450
2022-10-29T03:07:59.116Z,9.747475
2022-10-29T03:08:59.117Z,9.747368
2022-10-29T03:09:59.115Z,9.747395
2022-10-29T03:10:59.083Z,9.747389
2022-10-29T03:11:59.114Z,9.747669
2022-10-29T03:12:59.071Z,9.747499
2022-10-29T03:13:59.067Z,9.747446
2022-10-29T03:14:59.068Z,9.747420
2022-10-29T03:15:59.052Z,9.747486
2022-10-29T03:16:59.042Z,9.747478
2022-10-29T03:17:59.162Z,9.747341
2022-10-29T03:18:59.030Z,9.747393
2022-10-29T03:19:59.016Z,9.747423
2022-10-29T03:20:59.013Z,9.747377
2022-10-29T03:21:59.009Z,9.747330
2022-10-29T03:22:59.023Z,9.747427
2022-10-29T03:23:59.012Z,9.747356
2022-10-29T03:24:58.982Z,9.747442
2022-10-29T03:25:58.967Z,9.747399
2022-10-29T03:26:58.966Z,9.747379
2022-10-29T03:27:59.118Z,9.747375
2022-10-29T03:28:58.954Z,9.747453
2022-10-29T03:29:58.940Z,9.747390
2022-10-29T03:30:58.938Z,9.747377
2022-10-29T03:31:58.930Z,9.747296
2022-10-29T03:32:59.311Z,9.747308
2022-10-29T03:33:58.910Z,9.747401
2022-10-29T03:35:00.004Z,9.747448
2022-10-29T03:35:59.975Z,9.747468
2022-10-29T03:36:58.898Z,9.747504
2022-10-29T03:37:58.925Z,9.747337
2022-10-29T03:38:58.868Z,9.747396
2022-10-29T03:39:58.869Z,9.747386
2022-10-29T03:40:58.852Z,9.747388
2022-10-29T03:41:59.849Z,9.747453
2022-10-29T03:42:59.137Z,9.747424
2022-10-29T03:43:59.836Z,9.747414
2022-10-29T03:44:58.826Z,9.747484
2022-10-29T03:45:58.835Z,9.747398
2022-10-29T03:46:58.813Z,9.747373
2022-10-29T03:47:59.023Z,9.747325
2022-10-29T03:48:58.789Z,9.747367
2022-10-29T03:49:58.796Z,9.747334
2022-10-29T03:50:58.807Z,9.747367
2022-10-29T03:51:59.777Z,9.747378
2022-10-29T03:52:58.819Z,9.747304
2022-10-29T03:53:58.759Z,9.747495
2022-10-29T03:54:58.750Z,9.747580
2022-10-29T03:55:58.741Z,9.747505
2022-10-29T03:56:58.731Z,9.747505
2022-10-29T03:57:59.052Z,9.747509
2022-10-29T03:58:58.776Z,9.747465
2022-10-29T03:59:58.711Z,9.747561
2022-10-29T04:00:58.706Z,9.747599
2022-10-29T04:01:58.757Z,9.747508
2022-10-29T04:02:59.269Z,9.747346
2022-10-29T04:03:58.676Z,9.747339
2022-10-29T04:04:58.713Z,9.747442
2022-10-29T04:05:58.658Z,9.747330
2022-10-29T04:06:58.672Z,9.747630
2022-10-29T04:07:58.668Z,9.747534
2022-10-29T04:08:58.622Z,9.747573
2022-10-29T04:09:59.622Z,9.747475
2022-10-29T04:10:58.615Z,9.747553
2022-10-29T04:11:58.612Z,9.747464
2022-10-29T04:12:58.962Z,9.747424
2022-10-29T04:13:58.593Z,9.747899
2022-10-29T04:14:58.586Z,9.747861
2022-10-29T04:15:58.573Z,9.747465
2022-10-29T04:16:58.582Z,9.747628
2022-10-29T04:17:59.007Z,9.747199
2022-10-29T04:18:58.552Z,9.747305
2022-10-29T04:19:58.543Z,9.747281
2022-10-29T04:27:21.344Z,9.747429
2022-10-29T04:29:00.518Z,9.747126
2022-10-29T04:29:58.517Z,9.747435
2022-10-29T04:30:58.450Z,9.747427
2022-10-29T04:31:59.454Z,9.747381
2022-10-29T04:32:58.857Z,9.747508
2022-10-29T04:33:58.445Z,9.747384
2022-10-29T04:34:58.434Z,9.747485
2022-10-29T04:35:58.434Z,9.747243
2022-10-29T04:36:58.427Z,9.747388
2022-10-29T04:37:58.443Z,9.747468
2022-10-29T04:38:58.415Z,9.747517
2022-10-29T04:39:58.405Z,9.747483
2022-10-29T04:40:58.393Z,9.747568
2022-10-29T04:41:58.378Z,9.747559
2022-10-29T04:42:58.664Z,9.747888
2022-10-29T04:43:58.370Z,9.747915
2022-10-29T04:44:58.352Z,9.747533
2022-10-29T04:45:58.343Z,9.747442
2022-10-29T04:46:58.356Z,9.747403
2022-10-29T04:47:58.673Z,9.747362
2022-10-29T04:48:58.417Z,9.747396
2022-10-29T04:49:58.318Z,9.747473
2022-10-29T04:50:58.316Z,9.747536
2022-10-29T04:51:58.312Z,9.747453
2022-10-29T04:52:58.286Z,9.747388
2022-10-29T04:53:59.315Z,9.747173
2022-10-29T04:54:58.279Z,9.747433
2022-10-29T04:55:58.271Z,9.747325
2022-10-29T04:56:58.263Z,9.747375
2022-10-29T04:57:58.628Z,9.747584
2022-10-29T04:58:58.282Z,9.747384
2022-10-29T04:59:58.230Z,9.747328
2022-10-29T05:00:59.314Z,9.747470
2022-10-29T05:01:58.223Z,9.747499
2022-10-29T05:02:58.648Z,9.747499
2022-10-29T05:04:00.098Z,9.747467
2022-10-29T05:04:58.200Z,9.747456
2022-10-29T05:05:58.189Z,9.747390
2022-10-29T05:06:58.181Z,9.747364
2022-10-29T05:07:58.177Z,9.747406
2022-10-29T05:08:58.191Z,9.747385
2022-10-29T05:09:58.164Z,9.747412
2022-10-29T05:10:58.149Z,9.747435
2022-10-29T05:11:58.141Z,9.747427
2022-10-29T05:12:58.325Z,9.747387
2022-10-29T05:13:58.157Z,9.747441
2022-10-29T05:14:58.123Z,9.747362
2022-10-29T05:15:58.106Z,9.747360
2022-10-29T05:16:58.181Z,9.747379
2022-10-29T05:17:58.289Z,9.747350
2022-10-29T05:18:58.108Z,9.747387
2022-10-29T05:19:58.083Z,9.747394
2022-10-29T05:20:58.069Z,9.747364
2022-10-29T05:21:58.062Z,9.747372
2022-10-29T05:22:58.068Z,9.747356
2022-10-29T05:23:58.070Z,9.747365
2022-10-29T05:24:58.038Z,9.747421
2022-10-29T05:25:58.028Z,9.747375
2022-10-29T05:26:58.033Z,9.747264
2022-10-29T05:27:58.232Z,9.747357
2022-10-29T05:28:58.033Z,9.747289
2022-10-29T05:29:57.996Z,9.747361
2022-10-29T05:30:57.990Z,9.747330
2022-10-29T05:31:57.986Z,9.747368
2022-10-29T05:32:58.378Z,9.747352
2022-10-29T05:33:57.990Z,9.747388
2022-10-29T05:34:57.965Z,9.747330
2022-10-29T05:35:57.951Z,9.747323
2022-10-29T05:36:57.947Z,9.747514
2022-10-29T05:37:57.939Z,9.747278
2022-10-29T05:38:57.953Z,9.747307
2022-10-29T05:39:57.922Z,9.747417
2022-10-29T05:40:57.924Z,9.747396
2022-10-29T05:41:57.916Z,9.747448
2022-10-29T05:42:58.277Z,9.747378
2022-10-29T05:43:58.916Z,9.747396
2022-10-29T05:44:57.892Z,9.747376
2022-10-29T05:45:57.880Z,9.747340
2022-10-29T05:46:57.873Z,9.747357
2022-10-29T05:47:57.918Z,9.747409
2022-10-29T05:48:57.882Z,9.747395
2022-10-29T05:49:57.851Z,9.747356
2022-10-29T05:50:57.839Z,9.747340
2022-10-29T05:51:57.835Z,9.747326
2022-10-29T05:52:58.316Z,9.747374
2022-10-29T05:53:57.846Z,9.747391
2022-10-29T05:54:57.814Z,9.747396
2022-10-29T05:55:57.810Z,9.747411
2022-10-29T05:56:57.802Z,9.747383
2022-10-29T05:57:57.817Z,9.747391
2022-10-29T05:58:57.809Z,9.747367
2022-10-29T05:59:57.777Z,9.747297
2022-10-29T06:00:57.776Z,9.747304
2022-10-29T06:01:57.883Z,9.747444
2022-10-29T06:02:58.155Z,9.747286
2022-10-29T06:03:57.780Z,9.747275
2022-10-29T06:04:57.743Z,9.747345
2022-10-29T06:05:57.741Z,9.747468
2022-10-29T06:06:57.770Z,9.747596
2022-10-29T06:07:57.913Z,9.747273
2022-10-29T06:08:57.731Z,9.747396
2022-10-29T06:09:57.695Z,9.747474
2022-10-29T06:10:57.690Z,9.747336
2022-10-29T06:11:57.677Z,9.747252
2022-10-29T06:12:57.677Z,9.747251
2022-10-29T06:13:57.696Z,9.747081
2022-10-29T06:14:57.668Z,9.747144
2022-10-29T06:15:57.649Z,9.747475
2022-10-29T06:16:57.641Z,9.747299
2022-10-29T06:17:58.116Z,9.747362
2022-10-29T06:18:57.669Z,9.747370
2022-10-29T06:19:57.630Z,9.747468
2022-10-29T06:20:57.607Z,9.747355
2022-10-29T06:22:00.323Z,9.747375
2022-10-29T06:22:58.097Z,9.747145
2022-10-29T06:23:57.620Z,9.747188
2022-10-29T06:24:57.580Z,9.747455
2022-10-29T06:25:57.577Z,9.747226
2022-10-29T06:26:57.559Z,9.747113
2022-10-29T06:27:58.560Z,9.747212
2022-10-29T06:28:57.582Z,9.747355
2022-10-29T06:29:57.549Z,9.747497
2022-10-29T06:30:57.545Z,9.747501
2022-10-29T06:31:57.545Z,9.747428
2022-10-29T06:32:57.864Z,9.747519
2022-10-29T06:33:57.548Z,9.747417
2022-10-29T06:34:57.504Z,9.747473
2022-10-29T06:35:57.501Z,9.747470
2022-10-29T06:36:57.496Z,9.747423
2022-10-29T06:37:57.766Z,9.747328
2022-10-29T06:38:57.500Z,9.747163
2022-10-29T06:39:57.469Z,9.747561
2022-10-29T06:40:57.460Z,9.747580
2022-10-29T06:41:57.456Z,9.747311
2022-10-29T06:42:57.448Z,9.747292
2022-10-29T06:43:57.468Z,9.747356
2022-10-29T06:44:57.443Z,9.747335
2022-10-29T06:45:57.429Z,9.747305
2022-10-29T06:46:57.416Z,9.747210
2022-10-29T06:47:57.865Z,9.747153
2022-10-29T06:48:57.429Z,9.746971
2022-10-29T06:49:57.413Z,9.746966
2022-10-29T06:50:57.390Z,9.747057
2022-10-29T06:51:57.386Z,9.747179
2022-10-29T06:52:57.907Z,9.747025
2022-10-29T06:53:57.396Z,9.746914
2022-10-29T06:54:57.361Z,9.747098
2022-10-29T06:55:57.350Z,9.747189
2022-10-29T06:56:57.344Z,9.747313
2022-10-29T06:57:57.339Z,9.747357
2022-10-29T06:58:57.388Z,9.747345
2022-10-29T06:59:57.324Z,9.747324
2022-10-29T07:01:57.341Z,9.747211
2022-10-29T07:02:57.814Z,9.747389
2022-10-29T07:03:57.320Z,9.747300
2022-10-29T07:04:57.286Z,9.747332
2022-10-29T07:05:57.276Z,9.747313
2022-10-29T07:06:57.264Z,9.747307
2022-10-29T07:07:57.691Z,9.747218
2022-10-29T07:08:57.278Z,9.747324
2022-10-29T07:09:57.250Z,9.747332
2022-10-29T07:10:57.240Z,9.747328
2022-10-29T07:11:57.223Z,9.747197
2022-10-29T07:12:57.222Z,9.747300
2022-10-29T07:13:57.206Z,9.747266
2022-10-29T07:14:57.250Z,9.747352
2022-10-29T07:15:57.196Z,9.747308
2022-10-29T07:16:57.185Z,9.747344
2022-10-29T07:17:57.662Z,9.747468
2022-10-29T07:18:57.173Z,9.747305
2022-10-29T07:19:57.192Z,9.747399
2022-10-29T07:20:57.154Z,9.747515
2022-10-29T07:21:57.156Z,9.747375
2022-10-29T07:22:57.139Z,9.747449
2022-10-29T07:23:57.206Z,9.747479
2022-10-29T07:25:00.214Z,9.747455
2022-10-29T07:25:58.120Z,9.747463
2022-10-29T07:26:57.119Z,9.747369
2022-10-29T07:27:57.493Z,9.747411
2022-10-29T07:28:57.127Z,9.747392
2022-10-29T07:29:57.117Z,9.747293
2022-10-29T07:30:57.092Z,9.747255
2022-10-29T07:31:57.078Z,9.747379
2022-10-29T07:32:57.066Z,9.747359
2022-10-29T07:33:57.058Z,9.747319
2022-10-29T07:34:57.074Z,9.747385
2022-10-29T07:35:57.087Z,9.747331
2022-10-29T07:36:57.032Z,9.747236
2022-10-29T07:37:57.656Z,9.747331
2022-10-29T07:38:57.032Z,9.747358
2022-10-29T07:39:57.048Z,9.747374
2022-10-29T07:40:57.051Z,9.747350
2022-10-29T07:41:59.213Z,9.747410
2022-10-29T07:43:31.264Z,9.747437
2022-10-29T07:43:56.980Z,9.747433
2022-10-29T07:44:56.991Z,9.747437
2022-10-29T07:45:56.966Z,9.747406
2022-10-29T07:46:56.956Z,9.747376
2022-10-29T07:48:02.210Z,9.747409
2022-10-29T07:48:58.941Z,9.747423
2022-10-29T07:49:56.968Z,9.747245
2022-10-29T07:50:56.926Z,9.747436
2022-10-29T07:51:56.915Z,9.747418
2022-10-29T07:52:57.247Z,9.747393
2022-10-29T07:53:56.896Z,9.747365
2022-10-29T07:54:56.918Z,9.747369
2022-10-29T07:55:56.888Z,9.747376
2022-10-29T07:56:56.875Z,9.747372
2022-10-29T07:57:57.382Z,9.747443
2022-10-29T07:58:56.857Z,9.747358
2022-10-29T07:59:56.872Z,9.747294
2022-10-29T08:00:56.934Z,9.747354
2022-10-29T08:01:56.907Z,9.747346
2022-10-29T08:02:56.845Z,9.747374
2022-10-29T08:03:56.814Z,9.747346
2022-10-29T08:04:56.835Z,9.747301
2022-10-29T08:05:56.931Z,9.747342
2022-10-29T08:06:56.794Z,9.747429
2022-10-29T08:07:57.196Z,9.747442
2022-10-29T08:08:56.783Z,9.747343
2022-10-29T08:09:56.798Z,9.747403
2022-10-29T08:10:56.765Z,9.747377
2022-10-29T08:11:56.762Z,9.747410
2022-10-29T08:12:57.167Z,9.747349
2022-10-29T08:13:56.739Z,9.747331
2022-10-29T08:14:56.764Z,9.747280
2022-10-29T08:15:56.725Z,9.747270
2022-10-29T08:16:56.716Z,9.747264
2022-10-29T08:17:56.716Z,9.747370
2022-10-29T08:18:56.800Z,9.747350
2022-10-29T08:19:56.723Z,9.747593
2022-10-29T08:20:56.688Z,9.747682
2022-10-29T08:21:56.682Z,9.747559
2022-10-29T08:22:56.837Z,9.747497
2022-10-29T08:23:56.665Z,9.747452
2022-10-29T08:24:56.670Z,9.747454
2022-10-29T08:25:57.671Z,9.747366
2022-10-29T08:26:56.645Z,9.747414
2022-10-29T08:27:56.646Z,9.747478
2022-10-29T08:28:56.609Z,9.747387
2022-10-29T08:29:57.655Z,9.747309
2022-10-29T08:30:56.610Z,9.747371
2022-10-29T08:31:56.600Z,9.747423
2022-10-29T08:32:56.806Z,9.747328
2022-10-29T08:33:56.590Z,9.747454
2022-10-29T08:34:56.586Z,9.747481
2022-10-29T08:35:56.592Z,9.747288
2022-10-29T08:36:56.569Z,9.747414
2022-10-29T08:37:56.555Z,9.747396
2022-10-29T08:38:56.543Z,9.747337
2022-10-29T08:39:56.536Z,9.747303
2022-10-29T08:40:56.563Z,9.747400
2022-10-29T08:41:56.529Z,9.747323
2022-10-29T08:42:56.829Z,9.747314
2022-10-29T08:43:56.591Z,9.747352
2022-10-29T08:44:56.498Z,9.747331
2022-10-29T08:45:56.518Z,9.747399
2022-10-29T08:46:56.482Z,9.747364
2022-10-29T08:47:56.740Z,9.747393
2022-10-29T08:48:56.465Z,9.747443
2022-10-29T08:49:56.449Z,9.747355
2022-10-29T08:50:56.484Z,9.747482
2022-10-29T08:51:56.446Z,9.747309
2022-10-29T08:53:19.458Z,9.747318
2022-10-29T08:54:58.413Z,9.747399
2022-10-29T08:55:56.444Z,9.747312
2022-10-29T08:56:56.405Z,9.747284
2022-10-29T08:57:56.644Z,9.747282
2022-10-29T08:58:56.383Z,9.747321
2022-10-29T08:59:56.438Z,9.747391
2022-10-29T09:00:56.449Z,9.747457
2022-10-29T09:01:56.478Z,9.747350
2022-10-29T09:02:56.705Z,9.747397
2022-10-29T09:03:56.343Z,9.747476
2022-10-29T09:04:56.345Z,9.747520
2022-10-29T09:05:56.361Z,9.747464
2022-10-29T09:06:56.334Z,9.747363
2022-10-29T09:07:58.401Z,9.747277
2022-10-29T09:08:57.314Z,9.747340
2022-10-29T09:09:56.299Z,9.747365
2022-10-29T09:10:56.323Z,9.747364
2022-10-29T09:11:56.286Z,9.747297
2022-10-29T09:12:56.568Z,9.747381
2022-10-29T09:13:56.269Z,9.747395
2022-10-29T09:14:56.264Z,9.747403
2022-10-29T09:15:57.789Z,9.747405
2022-10-29T09:16:57.270Z,9.747367
2022-10-29T09:17:56.516Z,9.747451
2022-10-29T09:18:56.240Z,9.747419
2022-10-29T09:19:56.226Z,9.747521
2022-10-29T09:20:56.238Z,9.747390
2022-10-29T09:21:56.217Z,9.747392
2022-10-29T09:22:56.198Z,9.747389
2022-10-29T09:23:56.195Z,9.747409
2022-10-29T09:24:56.172Z,9.747478
2022-10-29T09:25:57.197Z,9.747424
2022-10-29T09:26:56.168Z,9.747370
2022-10-29T09:27:56.321Z,9.747228
2022-10-29T09:28:56.153Z,9.747376
2022-10-29T09:29:56.151Z,9.747412
2022-10-29T09:30:56.161Z,9.747305
2022-10-29T09:31:56.129Z,9.747337
2022-10-29T09:32:56.130Z,9.747321
2022-10-29T09:33:59.263Z,9.747356
2022-10-29T09:34:57.107Z,9.747333
2022-10-29T09:35:56.132Z,9.747442
2022-10-29T09:36:56.096Z,9.747466
2022-10-29T09:37:56.483Z,9.747391
2022-10-29T09:38:56.095Z,9.747388
2022-10-29T09:39:56.060Z,9.747363
2022-10-29T09:40:56.084Z,9.747561
2022-10-29T09:41:56.052Z,9.747561
2022-10-29T09:42:56.058Z,9.747577
2022-10-29T09:43:56.040Z,9.747475
2022-10-29T09:44:56.037Z,9.747545
2022-10-29T09:45:56.051Z,9.747354
2022-10-29T09:46:56.023Z,9.747475
2022-10-29T09:47:56.307Z,9.747228
2022-10-29T09:48:56.037Z,9.747388
2022-10-29T09:49:55.989Z,9.747610
2022-10-29T09:50:56.008Z,9.747581
2022-10-29T09:51:55.974Z,9.747486
2022-10-29T09:52:56.175Z,9.747728
2022-10-29T09:53:55.983Z,9.747740
2022-10-29T09:54:55.956Z,9.747450
2022-10-29T09:55:55.969Z,9.747564
2022-10-29T09:56:56.322Z,9.747709
2022-10-29T09:57:56.941Z,9.747767
2022-10-29T09:58:55.916Z,9.747750
2022-10-29T09:59:55.915Z,9.747608
2022-10-29T10:00:55.930Z,9.747537
2022-10-29T10:01:55.939Z,9.747552
2022-10-29T10:02:56.576Z,9.747861
2022-10-29T10:03:55.913Z,9.747763
2022-10-29T10:04:55.873Z,9.747723
2022-10-29T10:05:55.893Z,9.747636
2022-10-29T10:06:55.864Z,9.747607
2022-10-29T10:07:56.153Z,9.747611
2022-10-29T10:08:55.839Z,9.747605
2022-10-29T10:09:55.831Z,9.747796
2022-10-29T10:10:55.871Z,9.747784
2022-10-29T10:11:55.810Z,9.747705
2022-10-29T10:12:55.812Z,9.747640
2022-10-29T10:13:55.795Z,9.747657
2022-10-29T10:14:55.800Z,9.747672
2022-10-29T10:15:55.785Z,9.747645
2022-10-29T10:16:55.801Z,9.747556
2022-10-29T10:17:56.351Z,9.747600
2022-10-29T10:18:57.721Z,9.747611
2022-10-29T10:19:55.777Z,9.747848
2022-10-29T10:20:55.839Z,9.747461
2022-10-29T10:21:55.769Z,9.747878
2022-10-29T10:22:56.222Z,9.747712
2022-10-29T10:23:55.761Z,9.747719
2022-10-29T10:24:55.788Z,9.747636
2022-10-29T10:25:58.926Z,9.747879
2022-10-29T10:26:57.787Z,9.747723
2022-10-29T10:27:55.843Z,9.747568
2022-10-29T10:28:55.725Z,9.747688
2022-10-29T10:29:55.741Z,9.747766
2022-10-29T10:30:55.691Z,9.747484
2022-10-29T10:31:55.714Z,9.747437
2022-10-29T10:32:55.773Z,9.747491
2022-10-29T10:33:55.688Z,9.747563
2022-10-29T10:34:55.676Z,9.747602
2022-10-29T10:35:55.659Z,9.747517
2022-10-29T10:36:55.708Z,9.747602
2022-10-29T10:37:55.950Z,9.747541
2022-10-29T10:38:55.639Z,9.747477
2022-10-29T10:39:55.620Z,9.747568
2022-10-29T10:40:55.644Z,9.747540
2022-10-29T10:41:55.646Z,9.747471
2022-10-29T10:42:55.613Z,9.747565
2022-10-29T10:43:55.596Z,9.747446
2022-10-29T10:44:55.586Z,9.747387
2022-10-29T10:45:55.577Z,9.747429
2022-10-29T10:46:55.575Z,9.747428
2022-10-29T10:47:56.039Z,9.747410
2022-10-29T10:48:55.537Z,9.747453
2022-10-29T10:49:55.560Z,9.747615
2022-10-29T10:50:55.581Z,9.747409
2022-10-29T10:51:55.571Z,9.747458
2022-10-29T10:52:55.752Z,9.747470
2022-10-29T10:53:55.552Z,9.747491
2022-10-29T10:54:55.478Z,9.747494
2022-10-29T10:55:55.474Z,9.747568
2022-10-29T10:56:56.488Z,9.747499
2022-10-29T10:57:55.457Z,9.747641
2022-10-29T10:58:55.456Z,9.747560
2022-10-29T10:59:55.460Z,9.747514
2022-10-29T11:00:55.455Z,9.747538
2022-10-29T11:01:55.603Z,9.747562
2022-10-29T11:02:55.684Z,9.747566
2022-10-29T11:03:55.421Z,9.747579
2022-10-29T11:04:55.402Z,9.747547
2022-10-29T11:05:55.388Z,9.747542
2022-10-29T11:06:55.415Z,9.747568
2022-10-29T11:07:55.785Z,9.747637
2022-10-29T11:08:55.445Z,9.747517
2022-10-29T11:09:55.421Z,9.747580
2022-10-29T11:10:55.373Z,9.747679
2022-10-29T11:11:58.870Z,9.747668
2022-10-29T11:12:56.338Z,9.747581
2022-10-29T11:13:55.371Z,9.747623
2022-10-29T11:14:55.329Z,9.747493
2022-10-29T11:15:55.317Z,9.747451
2022-10-29T11:16:55.341Z,9.747471
2022-10-29T11:17:55.429Z,9.747512
2022-10-29T11:18:55.291Z,9.747412
2022-10-29T11:19:55.290Z,9.747443
2022-10-29T11:20:55.279Z,9.747394
2022-10-29T11:21:55.302Z,9.747395
2022-10-29T11:22:55.562Z,9.747355
2022-10-29T11:23:55.248Z,9.747257
2022-10-29T11:24:55.243Z,9.747352
2022-10-29T11:25:55.240Z,9.747332
2022-10-29T11:26:55.257Z,9.747300
2022-10-29T11:27:55.247Z,9.747521
2022-10-29T11:28:55.211Z,9.747400
2022-10-29T11:29:55.209Z,9.747379
2022-10-29T11:30:55.210Z,9.747416
2022-10-29T11:31:55.218Z,9.747272
2022-10-29T11:32:55.624Z,9.747460
2022-10-29T11:33:55.178Z,9.747391
2022-10-29T11:34:55.163Z,9.747417
2022-10-29T11:35:57.455Z,9.747389
2022-10-29T11:36:57.146Z,9.747407
2022-10-29T11:37:55.440Z,9.747395
2022-10-29T11:38:55.157Z,9.747437
2022-10-29T11:39:55.131Z,9.747408
2022-10-29T11:40:55.125Z,9.747373
2022-10-29T11:41:55.108Z,9.747401
2022-10-29T11:42:55.136Z,9.747338
2022-10-29T11:43:55.091Z,9.747449
2022-10-29T11:44:55.218Z,9.747385
2022-10-29T11:45:55.080Z,9.747465
2022-10-29T11:46:55.074Z,9.747436
2022-10-29T11:47:55.522Z,9.747406
2022-10-29T11:48:55.049Z,9.747363
2022-10-29T11:49:55.059Z,9.747383
2022-10-29T11:50:55.056Z,9.747375
2022-10-29T11:51:55.033Z,9.747288
2022-10-29T11:52:55.422Z,9.747317